Aviation Digital Data Service (ADDS)

Output produced by METARs form (0347 UTC 19 July 2018)
found at http://www.aviationweather.gov/adds/metars/
 
METAR text: KSBA 190253Z 26006KT 10SM CLR 19/16 A2994 RMK AO2 SLP139 T01940161 55003
Conditions at: KSBA (SANTA BARBARA , CA, US) observed 0253 UTC 19 July 2018
Temperature: 19.4°C (67°F)
Dewpoint: 16.1°C (61°F) [RH = 81%]
Pressure (altimeter): 29.94 inches Hg (1014.0 mb)
[Sea-level pressure: 1013.9 mb]
Winds: from the W (260 degrees) at 7 MPH (6 knots; 3.1 m/s)
Visibility: 10 or more miles (16+ km)
Ceiling: at least 12,000 feet AGL
Clouds: sky clear below 12,000 feet AGL
Weather: no significant weather observed at this time

METAR text: KSBA 190153Z 26007KT 10SM CLR 20/16 A2993 RMK AO2 SLP136 T02000161
Conditions at: KSBA (SANTA BARBARA , CA, US) observed 0153 UTC 19 July 2018
Temperature: 20.0°C (68°F)
Dewpoint: 16.1°C (61°F) [RH = 78%]
Pressure (altimeter): 29.93 inches Hg (1013.6 mb)
[Sea-level pressure: 1013.6 mb]
Winds: from the W (260 degrees) at 8 MPH (7 knots; 3.6 m/s)
Visibility: 10 or more miles (16+ km)
Ceiling: at least 12,000 feet AGL
Clouds: sky clear below 12,000 feet AGL
Weather: no significant weather observed at this time

METAR text: KSBA 190053Z 26011KT 10SM BKN180 21/16 A2992 RMK AO2 SLP132 T02110156
Conditions at: KSBA (SANTA BARBARA , CA, US) observed 0053 UTC 19 July 2018
Temperature: 21.1°C (70°F)
Dewpoint: 15.6°C (60°F) [RH = 71%]
Pressure (altimeter): 29.92 inches Hg (1013.3 mb)
[Sea-level pressure: 1013.2 mb]
Winds: from the W (260 degrees) at 13 MPH (11 knots; 5.7 m/s)
Visibility: 10 or more miles (16+ km)
Ceiling: 18000 feet AGL
Clouds: broken clouds at 18000 feet AGL
Weather: no significant weather observed at this time

METAR text: KSBA 182353Z 27008KT 10SM BKN150 22/16 A2995 RMK AO2 SLP142 T02170161 10228 20200 56017
Conditions at: KSBA (SANTA BARBARA , CA, US) observed 2353 UTC 18 July 2018
Temperature: 21.7°C (71°F)
Dewpoint: 16.1°C (61°F) [RH = 70%]
Pressure (altimeter): 29.95 inches Hg (1014.3 mb)
[Sea-level pressure: 1014.2 mb]
Winds: from the W (270 degrees) at 9 MPH (8 knots; 4.2 m/s)
Visibility: 10 or more miles (16+ km)
Ceiling: 15000 feet AGL
Clouds: broken clouds at 15000 feet AGL
Weather: no significant weather observed at this time

METAR text: KSBA 182253Z 25010KT 10SM BKN150 21/16 A2995 RMK AO2 SLP143 T02110161
Conditions at: KSBA (SANTA BARBARA , CA, US) observed 2253 UTC 18 July 2018
Temperature: 21.1°C (70°F)
Dewpoint: 16.1°C (61°F) [RH = 73%]
Pressure (altimeter): 29.95 inches Hg (1014.3 mb)
[Sea-level pressure: 1014.3 mb]
Winds: from the WSW (250 degrees) at 12 MPH (10 knots; 5.2 m/s)
Visibility: 10 or more miles (16+ km)
Ceiling: 15000 feet AGL
Clouds: broken clouds at 15000 feet AGL
Weather: no significant weather observed at this time

METAR text: KSBA 182153Z 25007KT 10SM BKN150 22/17 A2999 RMK AO2 SLP154 T02220167
Conditions at: KSBA (SANTA BARBARA , CA, US) observed 2153 UTC 18 July 2018
Temperature: 22.2°C (72°F)
Dewpoint: 16.7°C (62°F) [RH = 71%]
Pressure (altimeter): 29.99 inches Hg (1015.7 mb)
[Sea-level pressure: 1015.4 mb]
Winds: from the WSW (250 degrees) at 8 MPH (7 knots; 3.6 m/s)
Visibility: 10 or more miles (16+ km)
Ceiling: 15000 feet AGL
Clouds: broken clouds at 15000 feet AGL
Weather: no significant weather observed at this time

METAR text: KSBA 182053Z 22006KT 10SM BKN120 21/17 A3000 RMK AO2 SLP159 T02110167 50003
Conditions at: KSBA (SANTA BARBARA , CA, US) observed 2053 UTC 18 July 2018
Temperature: 21.1°C (70°F)
Dewpoint: 16.7°C (62°F) [RH = 76%]
Pressure (altimeter): 30.00 inches Hg (1016.0 mb)
[Sea-level pressure: 1015.9 mb]
Winds: from the SW (220 degrees) at 7 MPH (6 knots; 3.1 m/s)
Visibility: 10 or more miles (16+ km)
Ceiling: 12000 feet AGL
Clouds: broken clouds at 12000 feet AGL
Weather: no significant weather observed at this time

METAR text: KSBA 181953Z VRB04KT 10SM SCT007 BKN150 22/17 A3003 RMK AO2 SLP169 T02170167
Conditions at: KSBA (SANTA BARBARA , CA, US) observed 1953 UTC 18 July 2018
Temperature: 21.7°C (71°F)
Dewpoint: 16.7°C (62°F) [RH = 73%]
Pressure (altimeter): 30.03 inches Hg (1017.0 mb)
[Sea-level pressure: 1016.9 mb]
Winds: variable direction winds at 5 MPH (4 knots; 2.1 m/s)
Visibility: 10 or more miles (16+ km)
Ceiling: 15000 feet AGL
Clouds: scattered clouds at 700 feet AGL
broken clouds at 15000 feet AGL
Weather: no significant weather observed at this time